Arklow Bay — PBPI — position and weather

sailwx.info

Track history (hours):
 
Tides and Currents Weather Stations Pressure Air Temp Water Temp Dewpoint Dewpoint Depression Visibility Wind Speed Wind Dir Waves Ship Positions

Arklow Bay

Last reported at 2018-Apr-25 19:10 UTC. Time now 2018-Apr-25 20:23 UTC.
Position N 53°21' W 006°12'.

Length 119 m; draft 7.3 m.

Type: Cargo ship. MMSI: 244700336.

Date/timePositionNaut miles runAvg speedWind from/ knotsBaromVisibWave heightAir tempDewpointWater temp
2018-Apr-25 19:10N 53°21' W 006°12'0 0.0
2018-Apr-25 18:52N 53°21' W 006°12'0 0.0
2018-Apr-25 14:30N 53°21' W 006°12'0 0.0
2018-Apr-25 13:08N 53°21' W 006°12'0 0.0
2018-Apr-25 11:55N 53°21' W 006°12'0 0.0
2018-Apr-25 10:24N 53°21' W 006°12'0 0.0
2018-Apr-25 09:16N 53°21' W 006°12'0 0.0
2018-Apr-25 07:28N 53°21' W 006°12'0 0.0
2018-Apr-25 07:00N 53°21' W 006°12'0 0.0
2018-Apr-25 04:57N 53°21' W 006°12'0 0.0
2018-Apr-25 00:01N 53°21' W 006°12'0 0.0
2018-Apr-25 00:00N 53°21' W 006°12'0 0.0
2018-Apr-24 20:29N 53°21' W 006°12'0 0.0
2018-Apr-24 18:47N 53°21' W 006°12'0 0.0
2018-Apr-24 16:21N 53°21' W 006°12'0 0.0
2018-Apr-24 14:28N 53°21' W 006°12'0 0.0
2018-Apr-24 13:47N 53°21' W 006°12'0 0.0
2018-Apr-24 13:18N 53°21' W 006°12'0 0.0
2018-Apr-24 12:45N 53°21' W 006°12'0 0.0
2018-Apr-24 12:13N 53°21' W 006°12'0 0.0
2018-Apr-24 11:44N 53°21' W 006°12'0 0.0
2018-Apr-24 11:22N 53°21' W 006°12'0 0.0
2018-Apr-24 07:06N 53°21' W 006°12'0 0.0
2018-Apr-24 04:17N 53°21' W 006°12'0 0.0
2018-Apr-24 02:19N 53°21' W 006°12'0 0.2
2018-Apr-24 01:51N 53°21' W 006°12'2 5.9
2018-Apr-24 01:30N 53°21' W 006°08'4 7.7
2018-Apr-24 01:00N 53°19' W 006°03'5 9.4
2018-Apr-24 00:30N 53°15' W 005°60'0 0.9
2018-Apr-24 00:00N 53°15' W 005°59'2 4.9
2018-Apr-23 23:30N 53°12' W 005°59'2 4.3
2018-Apr-23 23:01N 53°10' W 005°58'3 5.0
2018-Apr-23 22:25N 53°13' W 005°60'2 5.6
2018-Apr-23 22:00N 53°15' W 005°60'0 0.8
2018-Apr-23 21:29N 53°15' W 005°59'2 3.3
2018-Apr-23 21:00N 53°14' W 005°59'2 3.2
2018-Apr-23 20:30N 53°12' W 005°58'2 3.1
2018-Apr-23 20:01N 53°11' W 005°58'2 3.5
2018-Apr-23 19:30N 53°09' W 005°57'2 3.0
2018-Apr-23 18:58N 53°07' W 005°56'1 2.8
2018-Apr-23 18:30N 53°06' W 005°55'2 4.8
2018-Apr-23 18:00N 53°04' W 005°55'5 9.8
2018-Apr-23 17:29N 52°59' W 005°54'510.4
2018-Apr-23 17:01N 52°54' W 005°53'611.1
2018-Apr-23 16:30N 52°48' W 005°53'1211.7
2018-Apr-23 15:27N 52°36' W 005°52'512.2
2018-Apr-23 15:00N 52°31' W 005°51'612.3
2018-Apr-23 14:30N 52°24' W 005°51'612.4
2018-Apr-23 14:00N 52°18' W 005°50'612.2
2018-Apr-23 13:30N 52°12' W 005°49'26010.5
2018-Apr-22 12:43N 47°52' W 006°00'16 9.8
2018-Apr-22 11:05N 47°36' W 005°59'1 9.8
2018-Apr-22 11:00N 47°35' W 005°59'5 9.7
2018-Apr-22 10:28N 47°30' W 005°58'5 9.8
2018-Apr-22 09:58N 47°25' W 005°57'6 9.9
2018-Apr-22 09:21N 47°19' W 005°57'510.5
2018-Apr-22 08:53N 47°14' W 005°57'2511.1
2018-Apr-22 06:39N 46°49' W 005°55'210.4
2018-Apr-22 06:28N 46°47' W 005°55'16210.7
2018-Apr-21 15:20N 44°06' W 005°43'510.5
2018-Apr-21 14:52N 44°01' W 005°42'910.5
2018-Apr-21 14:00N 43°52' W 005°41'510.5
2018-Apr-21 13:30N 43°47' W 005°41'510.5
2018-Apr-21 13:00N 43°41' W 005°41'510.5
2018-Apr-21 12:30N 43°36' W 005°40'2 2.7
2018-Apr-21 11:54N 43°35' W 005°41'0 0.0
2018-Apr-21 11:15N 43°35' W 005°41'0 0.0
2018-Apr-21 10:45N 43°35' W 005°41'0 0.0
2018-Apr-21 10:15N 43°35' W 005°41'0 0.0
2018-Apr-21 09:57N 43°35' W 005°41'0 0.0
2018-Apr-21 09:27N 43°35' W 005°41'0 0.0
2018-Apr-21 08:51N 43°35' W 005°41'0 0.0
2018-Apr-21 08:09N 43°35' W 005°41'0 0.0
2018-Apr-21 07:57N 43°35' W 005°41'0 0.0
2018-Apr-21 07:21N 43°35' W 005°41'0 0.0
2018-Apr-21 06:51N 43°35' W 005°41'0 0.0
2018-Apr-21 06:27N 43°35' W 005°41'0 0.0
2018-Apr-21 05:57N 43°35' W 005°41'0 0.0
2018-Apr-21 05:27N 43°35' W 005°41'0 0.0
2018-Apr-21 04:57N 43°35' W 005°41'0 0.0
2018-Apr-21 04:27N 43°35' W 005°41'0 0.0
2018-Apr-21 03:03N 43°35' W 005°41'0 0.0
2018-Apr-21 02:45N 43°35' W 005°41'0 0.0
2018-Apr-21 02:27N 43°35' W 005°41'0 0.0
2018-Apr-21 01:57N 43°35' W 005°41'0 0.0
2018-Apr-21 01:27N 43°35' W 005°41'0 0.0
2018-Apr-21 01:00N 43°35' W 005°41'0 0.0
2018-Apr-20 21:39N 43°35' W 005°41'1 4.8
2018-Apr-20 21:23N 43°36' W 005°40'912.2
2018-Apr-20 20:37N 43°45' W 005°41'212.1
2018-Apr-20 20:29N 43°47' W 005°41'23212.2
2018-Apr-20 01:23N 47°39' W 006°00'612.0
2018-Apr-20 00:53N 47°45' W 006°01'2713.1
2018-Apr-19 22:48N 48°12' W 006°03'1313.4
2018-Apr-19 21:48N 48°25' W 006°03'1313.2
2018-Apr-19 20:48N 48°38' W 006°04'1312.3
2018-Apr-19 19:43N 48°52' W 006°03'4111.0
2018-Apr-19 15:56N 49°33' W 006°03'1711.1
2018-Apr-19 14:22N 49°50' W 006°03'411.0
2018-Apr-19 14:01N 49°54' W 006°03'1111.4
2018-Apr-19 13:05N 50°05' W 006°02'111.8
2018-Apr-19 13:00N 50°06' W 006°02'612.0
2018-Apr-19 12:30N 50°12' W 006°02'712.2
2018-Apr-19 11:57N 50°19' W 006°02'712.1
2018-Apr-19 11:22N 50°26' W 006°02'1312.1
2018-Apr-19 10:17N 50°39' W 006°02'4610.8
2018-Apr-19 06:03N 51°25' W 005°60'010.8
2018-Apr-19 06:00N 51°25' W 005°60'8211.8
2018-Apr-18 23:04N 52°47' W 005°53'1 9.3
2018-Apr-18 23:00N 52°48' W 005°53'5 9.3
2018-Apr-18 22:30N 52°52' W 005°53'4 8.5
2018-Apr-18 22:00N 52°57' W 005°53'4 7.9
2018-Apr-18 21:30N 53°00' W 005°54'8 7.7
2018-Apr-18 20:30N 53°08' W 005°56'6 9.2
2018-Apr-18 19:50N 53°14' W 005°60'310.0
2018-Apr-18 19:30N 53°17' W 006°02'5 9.5
2018-Apr-18 18:59N 53°20' W 006°07'3 5.2
2018-Apr-18 18:28N 53°21' W 006°12'0 0.0
2018-Apr-18 18:00N 53°21' W 006°12'0 0.0
2018-Apr-18 16:30N 53°21' W 006°12'0 0.0
2018-Apr-18 13:46N 53°21' W 006°12'0 0.0
2018-Apr-18 13:13N 53°21' W 006°12'0 0.0
2018-Apr-18 12:58N 53°21' W 006°12'0 0.0
2018-Apr-18 12:28N 53°21' W 006°12'0 0.0
2018-Apr-18 11:58N 53°21' W 006°12'0 0.0
2018-Apr-18 10:49N 53°21' W 006°12'0 0.0
2018-Apr-18 10:30N 53°21' W 006°12'0 0.0
2018-Apr-18 09:58N 53°21' W 006°12'0 0.0
2018-Apr-18 09:22N 53°21' W 006°12'0 0.0
2018-Apr-18 08:36N 53°21' W 006°12'0 0.0
2018-Apr-18 08:09N 53°21' W 006°12'0 0.0
2018-Apr-18 07:10N 53°21' W 006°12'0 0.0
2018-Apr-18 06:56N 53°21' W 006°12'0 0.0
2018-Apr-18 06:25N 53°21' W 006°12'0 0.0
2018-Apr-18 05:55N 53°21' W 006°12'0 0.0
2018-Apr-18 05:24N 53°21' W 006°12'0 0.0
2018-Apr-18 04:59N 53°21' W 006°12'0 0.0
2018-Apr-18 04:23N 53°21' W 006°12'0 0.0
2018-Apr-18 03:53N 53°21' W 006°12'0 0.0
2018-Apr-18 02:05N 53°21' W 006°12'0 0.0
2018-Apr-18 00:29N 53°21' W 006°12'0 0.0
2018-Apr-17 23:59N 53°21' W 006°12'0 0.0
2018-Apr-17 23:23N 53°21' W 006°12'0 0.0
2018-Apr-17 23:00N 53°21' W 006°12'0 0.0
2018-Apr-17 19:11N 53°21' W 006°12'0 0.0
2018-Apr-17 16:16N 53°21' W 006°12'0 0.0
2018-Apr-17 15:49N 53°21' W 006°12'0 0.0
2018-Apr-17 13:27N 53°21' W 006°12'0 0.0
2018-Apr-17 12:59N 53°21' W 006°12'0 0.0
2018-Apr-17 12:21N 53°21' W 006°12'0 0.0
2018-Apr-17 11:57N 53°21' W 006°12'0 0.0
2018-Apr-17 11:23N 53°21' W 006°12'0 0.0
2018-Apr-17 10:07N 53°21' W 006°12'0 0.0
2018-Apr-17 09:28N 53°21' W 006°12'0 0.0
2018-Apr-17 07:47N 53°21' W 006°12'0 0.0
2018-Apr-17 05:54N 53°21' W 006°12'0 0.0
2018-Apr-17 05:20N 53°21' W 006°12'0 0.0
2018-Apr-17 04:55N 53°21' W 006°12'0 0.0
2018-Apr-17 04:22N 53°21' W 006°12'4 4.8
2018-Apr-17 03:33N 53°20' W 006°05'1 7.9
2018-Apr-17 03:29N 53°20' W 006°04'3 5.6
2018-Apr-17 03:01N 53°18' W 006°02'4 7.3
2018-Apr-17 02:27N 53°14' W 005°60'510.1
2018-Apr-17 02:00N 53°10' W 005°58'5 8.8
2018-Apr-17 01:29N 53°05' W 005°56'4 8.6
2018-Apr-17 01:00N 53°01' W 005°54'3 6.5
2018-Apr-17 00:30N 52°58' W 005°53'4 7.5
2018-Apr-17 00:00N 52°54' W 005°53'5 9.8
2018-Apr-16 23:30N 52°49' W 005°53'1111.0
2018-Apr-16 22:29N 52°38' W 005°51'612.0
2018-Apr-16 22:00N 52°33' W 005°49'612.6
2018-Apr-16 21:30N 52°26' W 005°49'612.7
2018-Apr-16 21:00N 52°20' W 005°48'  
Track history (hours):
 
Tides and Currents Weather Stations Pressure Air Temp Water Temp Dewpoint Dewpoint Depression Visibility Wind Speed Wind Dir Waves Ship Positions

Arklow Bay

Last reported at 2018-Apr-25 19:10 UTC. Time now 2018-Apr-25 20:23 UTC.
Position N 53°21' W 006°12'.

Length 119 m; draft 7.3 m.

Type: Cargo ship. MMSI: 244700336.

Date/timePositionNaut miles runAvg speedWind from/ knotsBaromVisibWave heightAir tempDewpointWater temp
2018-Apr-25 19:10N 53°21' W 006°12'0 0.0
2018-Apr-25 18:52N 53°21' W 006°12'0 0.0
2018-Apr-25 14:30N 53°21' W 006°12'0 0.0
2018-Apr-25 13:08N 53°21' W 006°12'0 0.0
2018-Apr-25 11:55N 53°21' W 006°12'0 0.0
2018-Apr-25 10:24N 53°21' W 006°12'0 0.0
2018-Apr-25 09:16N 53°21' W 006°12'0 0.0
2018-Apr-25 07:28N 53°21' W 006°12'0 0.0
2018-Apr-25 07:00N 53°21' W 006°12'0 0.0
2018-Apr-25 04:57N 53°21' W 006°12'0 0.0
2018-Apr-25 00:01N 53°21' W 006°12'0 0.0
2018-Apr-25 00:00N 53°21' W 006°12'0 0.0
2018-Apr-24 20:29N 53°21' W 006°12'0 0.0
2018-Apr-24 18:47N 53°21' W 006°12'0 0.0
2018-Apr-24 16:21N 53°21' W 006°12'0 0.0
2018-Apr-24 14:28N 53°21' W 006°12'0 0.0
2018-Apr-24 13:47N 53°21' W 006°12'0 0.0
2018-Apr-24 13:18N 53°21' W 006°12'0 0.0
2018-Apr-24 12:45N 53°21' W 006°12'0 0.0
2018-Apr-24 12:13N 53°21' W 006°12'0 0.0
2018-Apr-24 11:44N 53°21' W 006°12'0 0.0
2018-Apr-24 11:22N 53°21' W 006°12'0 0.0
2018-Apr-24 07:06N 53°21' W 006°12'0 0.0
2018-Apr-24 04:17N 53°21' W 006°12'0 0.0
2018-Apr-24 02:19N 53°21' W 006°12'0 0.2
2018-Apr-24 01:51N 53°21' W 006°12'2 5.9
2018-Apr-24 01:30N 53°21' W 006°08'4 7.7
2018-Apr-24 01:00N 53°19' W 006°03'5 9.4
2018-Apr-24 00:30N 53°15' W 005°60'0 0.9
2018-Apr-24 00:00N 53°15' W 005°59'2 4.9
2018-Apr-23 23:30N 53°12' W 005°59'2 4.3
2018-Apr-23 23:01N 53°10' W 005°58'3 5.0
2018-Apr-23 22:25N 53°13' W 005°60'2 5.6
2018-Apr-23 22:00N 53°15' W 005°60'0 0.8
2018-Apr-23 21:29N 53°15' W 005°59'2 3.3
2018-Apr-23 21:00N 53°14' W 005°59'2 3.2
2018-Apr-23 20:30N 53°12' W 005°58'2 3.1
2018-Apr-23 20:01N 53°11' W 005°58'2 3.5
2018-Apr-23 19:30N 53°09' W 005°57'2 3.0
2018-Apr-23 18:58N 53°07' W 005°56'1 2.8
2018-Apr-23 18:30N 53°06' W 005°55'2 4.8
2018-Apr-23 18:00N 53°04' W 005°55'5 9.8
2018-Apr-23 17:29N 52°59' W 005°54'510.4
2018-Apr-23 17:01N 52°54' W 005°53'611.1
2018-Apr-23 16:30N 52°48' W 005°53'1211.7
2018-Apr-23 15:27N 52°36' W 005°52'512.2
2018-Apr-23 15:00N 52°31' W 005°51'612.3
2018-Apr-23 14:30N 52°24' W 005°51'612.4
2018-Apr-23 14:00N 52°18' W 005°50'612.2
2018-Apr-23 13:30N 52°12' W 005°49'26010.5
2018-Apr-22 12:43N 47°52' W 006°00'16 9.8
2018-Apr-22 11:05N 47°36' W 005°59'1 9.8
2018-Apr-22 11:00N 47°35' W 005°59'5 9.7
2018-Apr-22 10:28N 47°30' W 005°58'5 9.8
2018-Apr-22 09:58N 47°25' W 005°57'6 9.9
2018-Apr-22 09:21N 47°19' W 005°57'510.5
2018-Apr-22 08:53N 47°14' W 005°57'2511.1
2018-Apr-22 06:39N 46°49' W 005°55'210.4
2018-Apr-22 06:28N 46°47' W 005°55'16210.7
2018-Apr-21 15:20N 44°06' W 005°43'510.5
2018-Apr-21 14:52N 44°01' W 005°42'910.5
2018-Apr-21 14:00N 43°52' W 005°41'510.5
2018-Apr-21 13:30N 43°47' W 005°41'510.5
2018-Apr-21 13:00N 43°41' W 005°41'510.5
2018-Apr-21 12:30N 43°36' W 005°40'2 2.7
2018-Apr-21 11:54N 43°35' W 005°41'0 0.0
2018-Apr-21 11:15N 43°35' W 005°41'0 0.0
2018-Apr-21 10:45N 43°35' W 005°41'0 0.0
2018-Apr-21 10:15N 43°35' W 005°41'0 0.0
2018-Apr-21 09:57N 43°35' W 005°41'0 0.0
2018-Apr-21 09:27N 43°35' W 005°41'0 0.0
2018-Apr-21 08:51N 43°35' W 005°41'0 0.0
2018-Apr-21 08:09N 43°35' W 005°41'0 0.0
2018-Apr-21 07:57N 43°35' W 005°41'0 0.0
2018-Apr-21 07:21N 43°35' W 005°41'0 0.0
2018-Apr-21 06:51N 43°35' W 005°41'0 0.0
2018-Apr-21 06:27N 43°35' W 005°41'0 0.0
2018-Apr-21 05:57N 43°35' W 005°41'0 0.0
2018-Apr-21 05:27N 43°35' W 005°41'0 0.0
2018-Apr-21 04:57N 43°35' W 005°41'0 0.0
2018-Apr-21 04:27N 43°35' W 005°41'0 0.0
2018-Apr-21 03:03N 43°35' W 005°41'0 0.0
2018-Apr-21 02:45N 43°35' W 005°41'0 0.0
2018-Apr-21 02:27N 43°35' W 005°41'0 0.0
2018-Apr-21 01:57N 43°35' W 005°41'0 0.0
2018-Apr-21 01:27N 43°35' W 005°41'0 0.0
2018-Apr-21 01:00N 43°35' W 005°41'0 0.0
2018-Apr-20 21:39N 43°35' W 005°41'1 4.8
2018-Apr-20 21:23N 43°36' W 005°40'912.2
2018-Apr-20 20:37N 43°45' W 005°41'212.1
2018-Apr-20 20:29N 43°47' W 005°41'23212.2
2018-Apr-20 01:23N 47°39' W 006°00'612.0
2018-Apr-20 00:53N 47°45' W 006°01'2713.1
2018-Apr-19 22:48N 48°12' W 006°03'1313.4
2018-Apr-19 21:48N 48°25' W 006°03'1313.2
2018-Apr-19 20:48N 48°38' W 006°04'1312.3
2018-Apr-19 19:43N 48°52' W 006°03'4111.0
2018-Apr-19 15:56N 49°33' W 006°03'1711.1
2018-Apr-19 14:22N 49°50' W 006°03'411.0
2018-Apr-19 14:01N 49°54' W 006°03'1111.4
2018-Apr-19 13:05N 50°05' W 006°02'111.8
2018-Apr-19 13:00N 50°06' W 006°02'612.0
2018-Apr-19 12:30N 50°12' W 006°02'712.2
2018-Apr-19 11:57N 50°19' W 006°02'712.1
2018-Apr-19 11:22N 50°26' W 006°02'1312.1
2018-Apr-19 10:17N 50°39' W 006°02'4610.8
2018-Apr-19 06:03N 51°25' W 005°60'010.8
2018-Apr-19 06:00N 51°25' W 005°60'8211.8
2018-Apr-18 23:04N 52°47' W 005°53'1 9.3
2018-Apr-18 23:00N 52°48' W 005°53'5 9.3
2018-Apr-18 22:30N 52°52' W 005°53'4 8.5
2018-Apr-18 22:00N 52°57' W 005°53'4 7.9
2018-Apr-18 21:30N 53°00' W 005°54'8 7.7
2018-Apr-18 20:30N 53°08' W 005°56'6 9.2
2018-Apr-18 19:50N 53°14' W 005°60'310.0
2018-Apr-18 19:30N 53°17' W 006°02'5 9.5
2018-Apr-18 18:59N 53°20' W 006°07'3 5.2
2018-Apr-18 18:28N 53°21' W 006°12'0 0.0
2018-Apr-18 18:00N 53°21' W 006°12'0 0.0
2018-Apr-18 16:30N 53°21' W 006°12'0 0.0
2018-Apr-18 13:46N 53°21' W 006°12'0 0.0
2018-Apr-18 13:13N 53°21' W 006°12'0 0.0
2018-Apr-18 12:58N 53°21' W 006°12'0 0.0
2018-Apr-18 12:28N 53°21' W 006°12'0 0.0
2018-Apr-18 11:58N 53°21' W 006°12'0 0.0
2018-Apr-18 10:49N 53°21' W 006°12'0 0.0
2018-Apr-18 10:30N 53°21' W 006°12'0 0.0
2018-Apr-18 09:58N 53°21' W 006°12'0 0.0
2018-Apr-18 09:22N 53°21' W 006°12'0 0.0
2018-Apr-18 08:36N 53°21' W 006°12'0 0.0
2018-Apr-18 08:09N 53°21' W 006°12'0 0.0
2018-Apr-18 07:10N 53°21' W 006°12'0 0.0
2018-Apr-18 06:56N 53°21' W 006°12'0 0.0
2018-Apr-18 06:25N 53°21' W 006°12'0 0.0
2018-Apr-18 05:55N 53°21' W 006°12'0 0.0
2018-Apr-18 05:24N 53°21' W 006°12'0 0.0
2018-Apr-18 04:59N 53°21' W 006°12'0 0.0
2018-Apr-18 04:23N 53°21' W 006°12'0 0.0
2018-Apr-18 03:53N 53°21' W 006°12'0 0.0
2018-Apr-18 02:05N 53°21' W 006°12'0 0.0
2018-Apr-18 00:29N 53°21' W 006°12'0 0.0
2018-Apr-17 23:59N 53°21' W 006°12'0 0.0
2018-Apr-17 23:23N 53°21' W 006°12'0 0.0
2018-Apr-17 23:00N 53°21' W 006°12'0 0.0
2018-Apr-17 19:11N 53°21' W 006°12'0 0.0
2018-Apr-17 16:16N 53°21' W 006°12'0 0.0
2018-Apr-17 15:49N 53°21' W 006°12'0 0.0
2018-Apr-17 13:27N 53°21' W 006°12'0 0.0
2018-Apr-17 12:59N 53°21' W 006°12'0 0.0
2018-Apr-17 12:21N 53°21' W 006°12'0 0.0
2018-Apr-17 11:57N 53°21' W 006°12'0 0.0
2018-Apr-17 11:23N 53°21' W 006°12'0 0.0
2018-Apr-17 10:07N 53°21' W 006°12'0 0.0
2018-Apr-17 09:28N 53°21' W 006°12'0 0.0
2018-Apr-17 07:47N 53°21' W 006°12'0 0.0
2018-Apr-17 05:54N 53°21' W 006°12'0 0.0
2018-Apr-17 05:20N 53°21' W 006°12'0 0.0
2018-Apr-17 04:55N 53°21' W 006°12'0 0.0
2018-Apr-17 04:22N 53°21' W 006°12'4 4.8
2018-Apr-17 03:33N 53°20' W 006°05'1 7.9
2018-Apr-17 03:29N 53°20' W 006°04'3 5.6
2018-Apr-17 03:01N 53°18' W 006°02'4 7.3
2018-Apr-17 02:27N 53°14' W 005°60'510.1
2018-Apr-17 02:00N 53°10' W 005°58'5 8.8
2018-Apr-17 01:29N 53°05' W 005°56'4 8.6
2018-Apr-17 01:00N 53°01' W 005°54'3 6.5
2018-Apr-17 00:30N 52°58' W 005°53'4 7.5
2018-Apr-17 00:00N 52°54' W 005°53'5 9.8
2018-Apr-16 23:30N 52°49' W 005°53'1111.0
2018-Apr-16 22:29N 52°38' W 005°51'612.0
2018-Apr-16 22:00N 52°33' W 005°49'612.6
2018-Apr-16 21:30N 52°26' W 005°49'612.7
2018-Apr-16 21:00N 52°20' W 005°48'  

Dump ship's entire track history